Time;durP1;ratioP1;P1;durP2;ratioP2;P2;SDS_P1;SDS_P2;PMS_P1;PMS_P2;Temp;Humidity;BMP_temperature;BMP_pressure;BME280_temperature;BME280_humidity;BME280_pressure;Samples;Min_cycle;Max_cycle;Signal;HPM_P1;HPM_P2
2023/03/27 00:02:19;;;;;;;8.25;2.25;;;;;;;3.74;81.50;101328.13;5039385;28;20053;-75
2023/03/27 00:04:45;;;;;;;13.10;2.40;;;;;;;3.79;81.21;101320.84;5044714;28;20087;-75
2023/03/27 00:07:11;;;;;;;20.17;3.47;;;;;;;3.82;81.57;101336.69;5044945;28;20033;-75
2023/03/27 00:09:38;;;;;;;14.65;3.40;;;;;;;3.85;82.15;101341.00;5033951;28;20025;-75
2023/03/27 00:12:03;;;;;;;16.88;3.42;;;;;;;3.89;82.14;101341.78;5026779;28;20060;-75
2023/03/27 00:14:29;;;;;;;13.65;2.35;;;;;;;3.93;82.21;101354.03;5037596;28;20041;-75
2023/03/27 00:16:56;;;;;;;15.40;2.80;;;;;;;3.94;81.61;101353.97;5022945;28;20036;-75
2023/03/27 00:19:21;;;;;;;12.48;2.90;;;;;;;3.99;82.08;101364.44;5023292;28;20029;-75
2023/03/27 00:21:47;;;;;;;14.48;2.97;;;;;;;3.98;82.45;101368.00;5027388;28;20133;-75
2023/03/27 00:24:12;;;;;;;11.60;3.00;;;;;;;3.99;82.75;101364.44;5040391;28;20362;-75
2023/03/27 00:26:39;;;;;;;16.90;2.83;;;;;;;4.00;82.81;101371.50;5033262;28;20034;-75
2023/03/27 00:29:06;;;;;;;9.38;2.70;;;;;;;3.96;82.39;101377.84;5021532;28;20025;-75
2023/03/27 00:31:31;;;;;;;13.98;2.97;;;;;;;3.93;82.50;101381.47;5029988;28;20104;-75
2023/03/27 00:33:56;;;;;;;19.02;2.83;;;;;;;3.89;83.07;101379.00;5036760;28;20061;-75
2023/03/27 00:36:22;;;;;;;15.18;2.90;;;;;;;3.88;83.28;101378.13;5038225;28;20049;-75
2023/03/27 00:38:48;;;;;;;13.15;2.92;;;;;;;3.87;83.24;101375.53;5026112;28;20139;-75
2023/03/27 00:41:13;;;;;;;18.42;2.80;;;;;;;3.81;83.35;101381.94;5039021;28;20033;-75
2023/03/27 00:43:44;;;;;;;15.25;3.50;;;;;;;3.77;83.56;101377.66;5042489;28;20124;-75
2023/03/27 00:46:44;;;;;;;12.63;2.90;;;;;;;3.73;83.82;101382.19;5042973;28;20032;-75
2023/03/27 00:49:13;;;;;;;15.35;2.67;;;;;;;3.65;83.91;101381.63;5044131;28;20108;-75
2023/03/27 00:51:41;;;;;;;15.73;3.35;;;;;;;3.63;84.03;101399.41;5031305;28;20022;-75
2023/03/27 00:54:07;;;;;;;11.82;2.72;;;;;;;3.61;84.66;101393.28;5044444;28;20095;-75
2023/03/27 00:56:36;;;;;;;15.40;2.83;;;;;;;3.55;84.84;101404.13;5035858;28;20048;-75
2023/03/27 00:59:07;;;;;;;7.70;2.25;;;;;;;3.53;85.05;101408.63;5037065;28;20099;-75
2023/03/27 01:01:32;;;;;;;12.27;2.65;;;;;;;3.50;85.31;101415.78;5033375;28;20113;-75
2023/03/27 01:04:03;;;;;;;14.55;2.42;;;;;;;3.47;85.95;101407.03;5044363;28;20104;-75
2023/03/27 01:06:30;;;;;;;10.52;2.40;;;;;;;3.44;85.80;101409.81;5040548;28;20037;-75
2023/03/27 01:08:55;;;;;;;16.73;2.63;;;;;;;3.43;86.36;101418.72;5039735;28;20025;-75
2023/03/27 01:11:45;;;;;;;13.98;2.75;;;;;;;3.43;86.50;101414.28;5040820;28;20090;-75
2023/03/27 01:14:19;;;;;;;11.77;2.70;;;;;;;3.38;86.84;101413.53;5043369;28;20055;-75
2023/03/27 01:17:31;;;;;;;14.27;2.83;;;;;;;3.35;86.79;101416.31;5035454;28;20056;-75
2023/03/27 01:20:13;;;;;;;10.32;2.15;;;;;;;3.29;87.34;101419.19;4994696;28;20037;-75
2023/03/27 01:23:05;;;;;;;11.30;2.67;;;;;;;3.26;87.48;101422.81;5014798;28;20069;-75
2023/03/27 01:25:58;;;;;;;11.63;3.05;;;;;;;3.24;88.41;101429.09;5014912;28;20128;-75
2023/03/27 01:28:46;;;;;;;15.38;2.58;;;;;;;3.18;89.87;101432.84;5018227;28;20047;-75
2023/03/27 01:31:30;;;;;;;16.17;3.22;;;;;;;3.19;89.16;101436.34;4998384;28;20476;-75
2023/03/27 01:34:30;;;;;;;12.20;2.60;;;;;;;3.23;89.47;101440.63;5002638;28;20033;-75
2023/03/27 01:37:05;;;;;;;12.20;2.35;;;;;;;3.26;89.28;101429.91;5014259;28;20533;-75
2023/03/27 01:40:12;;;;;;;10.13;2.40;;;;;;;3.33;89.78;101436.75;5017961;28;20120;-75
2023/03/27 01:42:50;;;;;;;10.63;2.80;;;;;;;3.28;89.47;101442.22;4994599;28;20040;-75
2023/03/27 01:45:23;;;;;;;10.55;2.20;;;;;;;3.30;89.74;101450.16;5020362;28;20037;-72
2023/03/27 01:48:10;;;;;;;11.55;3.00;;;;;;;3.37;89.98;101454.34;4999677;28;20123;-72
2023/03/27 01:50:40;;;;;;;11.57;2.95;;;;;;;3.37;89.90;101458.75;5002514;28;20030;-72
2023/03/27 01:53:22;;;;;;;12.40;3.05;;;;;;;3.41;89.97;101460.41;5017128;28;20042;-73
2023/03/27 01:55:57;;;;;;;12.20;3.42;;;;;;;3.39;90.38;101457.81;5031081;28;20468;-73
2023/03/27 01:58:28;;;;;;;20.70;3.50;;;;;;;3.37;91.01;101457.00;5035854;28;20028;-72
2023/03/27 02:01:00;;;;;;;15.68;3.67;;;;;;;3.38;90.51;101464.03;5028047;28;20028;-72
2023/03/27 02:03:34;;;;;;;21.88;3.38;;;;;;;3.36;90.41;101460.56;5040063;28;20483;-73
2023/03/27 02:06:02;;;;;;;12.98;2.70;;;;;;;3.35;91.56;101461.47;5038950;28;20481;-72
2023/03/27 02:08:56;;;;;;;14.10;3.28;;;;;;;3.32;90.55;101458.91;5030895;28;20450;-73
2023/03/27 02:11:27;;;;;;;8.27;2.40;;;;;;;3.22;91.27;101473.44;5035512;28;20033;-72
2023/03/27 02:13:59;;;;;;;9.80;3.22;;;;;;;3.16;91.95;101479.81;5029271;28;20104;-72
2023/03/27 02:16:32;;;;;;;14.35;3.00;;;;;;;3.10;92.05;101480.88;5032692;28;20025;-72
2023/03/27 02:19:02;;;;;;;11.77;3.10;;;;;;;3.10;91.84;101486.19;5035015;28;20567;-73
2023/03/27 02:21:30;;;;;;;13.48;2.90;;;;;;;3.08;91.80;101492.47;5030070;28;20047;-72
2023/03/27 02:23:56;;;;;;;10.77;2.65;;;;;;;3.05;92.07;101493.44;5026859;28;20042;-73
2023/03/27 02:26:22;;;;;;;18.17;2.90;;;;;;;3.07;91.93;101496.03;5035825;28;20135;-72
2023/03/27 02:29:00;;;;;;;10.52;2.53;;;;;;;3.07;92.33;101496.03;5030574;28;20152;-72
2023/03/27 02:31:53;;;;;;;19.10;3.65;;;;;;;3.05;92.48;101506.72;5040172;28;20049;-72
2023/03/27 02:34:31;;;;;;;11.07;2.88;;;;;;;2.95;92.89;101502.59;5035176;28;20036;-73
2023/03/27 02:37:18;;;;;;;12.60;2.83;;;;;;;2.88;93.11;101511.69;5038576;28;20052;-72
2023/03/27 02:39:59;;;;;;;10.77;2.95;;;;;;;2.79;93.01;101511.03;5036602;28;20120;-73
2023/03/27 02:42:44;;;;;;;14.00;3.08;;;;;;;2.78;92.88;101506.66;5021273;28;20036;-72
2023/03/27 02:45:28;;;;;;;9.98;2.72;;;;;;;2.71;92.51;101520.13;5030130;28;20037;-73
2023/03/27 02:48:03;;;;;;;12.45;2.60;;;;;;;2.70;92.98;101515.75;5022309;28;20072;-73
2023/03/27 02:50:43;;;;;;;14.23;3.05;;;;;;;2.72;93.40;101517.44;5021198;28;20087;-72
2023/03/27 02:53:13;;;;;;;16.02;3.17;;;;;;;2.77;93.13;101520.84;5030517;28;20128;-73
2023/03/27 02:55:49;;;;;;;11.15;2.70;;;;;;;2.82;92.65;101522.50;5035385;28;20487;-73
2023/03/27 02:58:20;;;;;;;11.15;2.70;;;;;;;2.82;92.42;101522.50;5022913;28;20092;-72
2023/03/27 03:00:49;;;;;;;8.52;2.50;;;;;;;2.82;92.60;101528.66;5039278;28;20049;-73
2023/03/27 03:03:26;;;;;;;12.18;2.60;;;;;;;2.86;92.52;101537.41;5033522;28;20062;-72
2023/03/27 03:05:52;;;;;;;14.18;3.47;;;;;;;2.87;91.91;101532.06;5046731;28;20112;-72
2023/03/27 03:08:20;;;;;;;11.25;2.47;;;;;;;2.88;91.86;101538.22;5032714;28;20121;-73
2023/03/27 03:10:46;;;;;;;14.45;3.20;;;;;;;2.89;91.58;101545.28;5027901;28;20911;-72
2023/03/27 03:13:12;;;;;;;17.08;3.10;;;;;;;2.87;91.48;101542.69;5032029;28;20018;-73
2023/03/27 03:15:38;;;;;;;14.57;3.20;;;;;;;2.90;91.68;101547.00;5039102;28;20037;-73
2023/03/27 03:18:03;;;;;;;10.75;2.53;;;;;;;2.84;91.57;101553.41;5036661;28;20439;-73
2023/03/27 03:20:28;;;;;;;9.00;2.63;;;;;;;2.79;92.35;101555.28;5033108;28;20037;-73
2023/03/27 03:22:56;;;;;;;11.88;2.40;;;;;;;2.74;91.81;101555.44;5035293;28;20037;-73
2023/03/27 03:25:21;;;;;;;14.23;2.70;;;;;;;2.71;91.88;101558.19;5034951;28;20102;-73
2023/03/27 03:27:47;;;;;;;8.25;2.28;;;;;;;2.72;91.97;101561.69;5041075;28;20021;-73
2023/03/27 03:30:13;;;;;;;12.70;2.50;;;;;;;2.71;91.16;101567.91;5042577;28;20025;-72
2023/03/27 03:32:38;;;;;;;11.95;2.90;;;;;;;2.69;91.27;101581.22;5032376;28;20052;-73
2023/03/27 03:35:04;;;;;;;13.07;3.25;;;;;;;2.66;91.60;101580.47;5042202;28;20072;-73
2023/03/27 03:37:29;;;;;;;9.23;2.53;;;;;;;2.64;91.57;101585.81;5045724;28;20052;-72
2023/03/27 03:39:55;;;;;;;9.15;2.60;;;;;;;2.64;91.19;101591.13;5044289;28;20447;-73
2023/03/27 03:42:20;;;;;;;12.48;2.70;;;;;;;2.64;91.47;101593.78;5029429;28;20025;-73
2023/03/27 03:44:46;;;;;;;14.00;2.78;;;;;;;2.69;91.38;101596.28;5034315;28;20020;-73
2023/03/27 03:47:11;;;;;;;14.30;2.92;;;;;;;2.70;90.83;101598.91;5044031;28;20052;-73
2023/03/27 03:49:37;;;;;;;12.73;2.50;;;;;;;2.73;90.59;101609.44;5043961;28;20055;-72
2023/03/27 03:52:02;;;;;;;14.45;3.35;;;;;;;2.74;91.00;101600.56;5036472;28;20492;-72
2023/03/27 03:54:28;;;;;;;16.23;3.38;;;;;;;2.75;91.50;101602.31;5039542;28;20049;-73
2023/03/27 03:56:53;;;;;;;9.40;2.90;;;;;;;2.78;90.96;101607.53;5044369;28;20036;-73
2023/03/27 03:59:18;;;;;;;15.32;2.70;;;;;;;2.80;91.14;101610.13;5044176;28;20029;-72
2023/03/27 04:01:44;;;;;;;11.35;2.70;;;;;;;2.78;91.09;101618.16;5041183;28;20052;-73
2023/03/27 04:04:10;;;;;;;10.32;2.85;;;;;;;2.79;91.35;101622.53;5033120;28;20043;-73
2023/03/27 04:06:38;;;;;;;13.23;2.47;;;;;;;2.78;91.26;101620.81;5031400;28;20026;-73
2023/03/27 04:09:04;;;;;;;17.95;3.33;;;;;;;2.76;91.31;101624.41;5034174;28;20060;-72
2023/03/27 04:11:29;;;;;;;11.07;2.92;;;;;;;2.71;91.50;101628.97;5034707;28;20029;-73
2023/03/27 04:13:55;;;;;;;13.25;2.88;;;;;;;2.66;92.15;101637.06;5036258;28;20033;-72
2023/03/27 04:16:21;;;;;;;10.68;3.00;;;;;;;2.62;92.13;101636.28;5024936;28;20049;-73
2023/03/27 04:18:49;;;;;;;15.75;3.08;;;;;;;2.56;92.14;101631.16;5035527;28;20143;-73
2023/03/27 04:21:15;;;;;;;10.27;2.90;;;;;;;2.52;92.42;101640.09;5044546;28;20220;-73
2023/03/27 04:23:41;;;;;;;11.15;2.50;;;;;;;2.48;92.58;101646.41;5037015;28;20411;-72
2023/03/27 04:26:06;;;;;;;11.05;2.78;;;;;;;2.49;92.70;101649.91;5036139;28;20036;-73
2023/03/27 04:28:33;;;;;;;13.52;2.28;;;;;;;2.46;92.34;101653.53;5040048;28;20025;-72
2023/03/27 04:31:05;;;;;;;10.65;2.58;;;;;;;2.41;93.31;101661.59;5033090;28;20029;-73
2023/03/27 04:33:34;;;;;;;10.10;2.58;;;;;;;2.38;93.62;101671.44;5032575;28;20017;-73
2023/03/27 04:36:00;;;;;;;15.10;3.10;;;;;;;2.37;93.39;101667.03;5038388;28;20464;-72
2023/03/27 04:38:27;;;;;;;9.48;1.88;;;;;;;2.36;93.37;101676.78;5038355;28;20026;-73
2023/03/27 04:40:53;;;;;;;10.38;2.55;;;;;;;2.34;93.35;101675.94;5042803;28;20044;-73
2023/03/27 04:43:19;;;;;;;13.02;2.65;;;;;;;2.32;93.15;101682.22;5030372;28;20028;-73
2023/03/27 04:45:46;;;;;;;11.68;2.65;;;;;;;2.29;93.32;101687.59;5034183;28;20108;-73
2023/03/27 04:48:12;;;;;;;15.13;2.50;;;;;;;2.21;93.04;101690.41;5032098;28;20029;-73
2023/03/27 04:50:37;;;;;;;10.13;2.47;;;;;;;2.16;93.75;101692.31;5034312;28;20125;-73
2023/03/27 04:53:03;;;;;;;11.80;2.45;;;;;;;2.09;93.72;101691.59;5041008;28;20084;-73
2023/03/27 04:55:29;;;;;;;12.80;2.65;;;;;;;2.04;94.37;101694.34;5041541;28;20033;-73
2023/03/27 04:57:56;;;;;;;11.50;2.03;;;;;;;2.04;94.93;101699.66;5041847;28;20017;-73
2023/03/27 05:00:22;;;;;;;10.65;2.83;;;;;;;2.08;94.92;101701.34;5039659;28;20022;-73
2023/03/27 05:02:52;;;;;;;8.63;2.03;;;;;;;2.13;95.39;101709.16;5036862;28;20496;-73
2023/03/27 05:05:18;;;;;;;15.57;3.00;;;;;;;2.20;95.48;101701.94;5034046;28;20025;-73
2023/03/27 05:07:45;;;;;;;11.93;2.88;;;;;;;2.19;95.74;101708.16;5043970;28;20026;-73
2023/03/27 05:10:10;;;;;;;12.07;2.53;;;;;;;2.24;95.75;101712.44;5035350;28;20025;-73
2023/03/27 05:12:40;;;;;;;8.98;2.03;;;;;;;2.29;96.28;101714.13;5046745;28;20476;-73
2023/03/27 05:15:06;;;;;;;9.18;2.53;;;;;;;2.34;95.76;101718.38;5032783;28;20422;-73
2023/03/27 05:17:31;;;;;;;13.13;2.60;;;;;;;2.38;95.74;101720.03;5028776;28;20024;-73
2023/03/27 05:19:57;;;;;;;8.02;2.35;;;;;;;2.41;96.24;101735.88;5037095;28;20071;-73
2023/03/27 05:22:22;;;;;;;13.77;2.72;;;;;;;2.44;95.60;101732.28;5033147;28;20044;-73
2023/03/27 05:24:47;;;;;;;10.20;3.00;;;;;;;2.50;95.51;101725.97;5040314;28;20120;-73
2023/03/27 05:27:14;;;;;;;11.57;3.25;;;;;;;2.56;95.27;101739.06;5035998;28;20029;-73
2023/03/27 05:29:39;;;;;;;10.65;2.50;;;;;;;2.57;95.19;101736.38;5041513;28;20469;-73
2023/03/27 05:32:05;;;;;;;17.08;3.08;;;;;;;2.62;95.22;101744.19;5029281;28;20025;-73
2023/03/27 05:34:30;;;;;;;10.25;2.55;;;;;;;2.64;95.84;101749.50;5029931;28;20026;-73
2023/03/27 05:36:56;;;;;;;9.80;2.33;;;;;;;2.62;95.65;101749.50;5026726;28;20099;-73
2023/03/27 05:39:24;;;;;;;14.32;3.40;;;;;;;2.65;95.22;101749.47;5036480;28;20124;-73
2023/03/27 05:41:49;;;;;;;10.45;2.83;;;;;;;2.65;95.73;101756.53;5019731;28;20028;-73
2023/03/27 05:44:14;;;;;;;13.13;3.20;;;;;;;2.67;95.93;101752.94;5029077;28;20025;-72
2023/03/27 05:46:41;;;;;;;19.83;3.60;;;;;;;2.68;95.98;101760.00;5045858;28;20033;-73
2023/03/27 05:49:06;;;;;;;12.00;3.03;;;;;;;2.69;96.16;101767.03;5049327;28;20020;-72
2023/03/27 05:51:32;;;;;;;7.60;2.45;;;;;;;2.69;96.49;101766.16;5041911;28;20036;-73
2023/03/27 05:53:58;;;;;;;15.80;4.03;;;;;;;2.69;96.54;101769.69;5033471;28;20111;-72
2023/03/27 05:56:26;;;;;;;15.15;3.92;;;;;;;2.72;96.20;101780.22;5041878;28;20029;-73
2023/03/27 05:58:51;;;;;;;18.33;4.55;;;;;;;2.71;95.93;101773.19;5033634;28;20056;-73
2023/03/27 06:01:17;;;;;;;20.58;4.85;;;;;;;2.71;96.51;101775.84;5031340;28;20452;-73
2023/03/27 06:03:42;;;;;;;16.20;4.22;;;;;;;2.73;96.46;101778.44;5037452;28;20032;-73
2023/03/27 06:06:10;;;;;;;15.45;3.88;;;;;;;2.76;95.92;101781.88;5034593;28;20389;-73
2023/03/27 06:08:36;;;;;;;14.80;3.60;;;;;;;2.85;96.04;101793.19;5021229;28;20453;-73
2023/03/27 06:11:08;;;;;;;15.90;3.28;;;;;;;2.90;96.02;101805.44;5013622;28;20168;-73
2023/03/27 06:13:34;;;;;;;12.85;3.00;;;;;;;2.95;95.05;101810.63;5016179;28;20444;-73
2023/03/27 06:16:00;;;;;;;9.52;2.42;;;;;;;2.98;95.34;101823.81;5018929;28;20369;-73
2023/03/27 06:18:25;;;;;;;10.40;2.17;;;;;;;3.02;95.16;101828.16;5022918;28;20033;-73
2023/03/27 06:20:51;;;;;;;9.30;2.50;;;;;;;3.06;95.73;101843.09;5024844;28;20064;-73
2023/03/27 06:23:16;;;;;;;13.13;3.45;;;;;;;3.05;96.34;101837.81;5020403;28;20029;-72
2023/03/27 06:25:43;;;;;;;10.48;3.38;;;;;;;3.02;96.12;101828.16;5020923;28;20037;-72
2023/03/27 06:28:09;;;;;;;9.75;3.13;;;;;;;2.97;96.47;101820.31;5033946;28;20045;-72
2023/03/27 06:30:37;;;;;;;11.90;3.35;;;;;;;2.94;96.86;101822.16;5034134;28;20039;-72
2023/03/27 06:33:04;;;;;;;6.93;2.85;;;;;;;2.88;96.85;101824.97;5033842;28;20487;-73
2023/03/27 06:35:31;;;;;;;15.10;3.83;;;;;;;2.77;97.15;101828.75;5028570;28;20036;-72
2023/03/27 06:38:01;;;;;;;7.65;3.17;;;;;;;2.72;97.63;101825.34;5028191;28;20058;-72
2023/03/27 06:40:28;;;;;;;9.40;3.35;;;;;;;2.67;98.18;101837.88;5034831;28;20040;-73
2023/03/27 06:42:56;;;;;;;12.00;3.72;;;;;;;2.63;98.81;101838.84;5035935;28;20103;-72
2023/03/27 06:45:24;;;;;;;19.80;3.42;;;;;;;2.59;99.53;101838.06;5037225;28;20040;-72
2023/03/27 06:47:58;;;;;;;15.77;3.17;;;;;;;2.59;99.94;101837.16;5030888;28;20037;-73
2023/03/27 06:50:26;;;;;;;13.18;3.63;;;;;;;2.60;100.00;101844.22;5038570;28;20044;-72
2023/03/27 06:52:51;;;;;;;9.15;2.63;;;;;;;2.61;100.00;101844.19;5036297;28;20029;-72
2023/03/27 06:55:18;;;;;;;10.63;3.03;;;;;;;2.67;100.00;101853.78;5032830;28;20110;-72
2023/03/27 06:57:49;;;;;;;10.20;2.92;;;;;;;2.70;100.00;101852.84;5035284;28;20029;-72
2023/03/27 07:00:17;;;;;;;10.35;3.15;;;;;;;2.72;100.00;101853.69;5036122;28;20024;-72
2023/03/27 07:02:43;;;;;;;7.50;2.85;;;;;;;2.75;100.00;101865.09;5039361;28;20079;-72
2023/03/27 07:05:09;;;;;;;11.15;3.13;;;;;;;2.80;100.00;101871.16;5030513;28;20432;-72
2023/03/27 07:07:35;;;;;;;9.45;3.08;;;;;;;2.82;100.00;101863.16;5031458;28;20086;-72
2023/03/27 07:10:00;;;;;;;9.27;3.10;;;;;;;2.86;100.00;101870.16;5032569;28;20037;-72
2023/03/27 07:12:26;;;;;;;7.95;2.92;;;;;;;2.90;100.00;101869.16;5031185;28;20103;-72
2023/03/27 07:14:51;;;;;;;12.30;3.45;;;;;;;2.94;99.20;101875.25;5031079;28;20477;-72
2023/03/27 07:17:17;;;;;;;10.52;3.30;;;;;;;2.99;100.00;101876.03;5026294;28;20049;-73
2023/03/27 07:19:43;;;;;;;12.15;2.60;;;;;;;2.99;98.81;101876.03;5021859;28;20112;-72
2023/03/27 07:22:08;;;;;;;9.88;2.90;;;;;;;3.01;97.64;101883.97;5034206;28;20448;-72
2023/03/27 07:24:33;;;;;;;12.18;3.47;;;;;;;3.03;97.12;101883.00;5036171;28;20128;-72
2023/03/27 07:26:58;;;;;;;10.70;2.88;;;;;;;3.09;97.68;101889.94;5019156;28;20042;-72
2023/03/27 07:29:24;;;;;;;14.32;3.53;;;;;;;3.15;97.25;101887.16;5030168;28;20044;-72
2023/03/27 07:31:50;;;;;;;10.93;3.35;;;;;;;3.23;97.12;101894.91;5035226;28;20056;-72
2023/03/27 07:34:15;;;;;;;8.90;2.92;;;;;;;3.24;94.08;101896.66;5030212;28;20071;-72
2023/03/27 07:36:41;;;;;;;10.35;3.35;;;;;;;3.28;93.96;101899.19;5029097;28;20034;-72
2023/03/27 07:39:07;;;;;;;11.43;3.00;;;;;;;3.37;95.59;101902.50;5040480;28;20036;-72
2023/03/27 07:41:33;;;;;;;9.43;2.45;;;;;;;3.45;95.30;101900.53;5034810;28;20033;-72
2023/03/27 07:44:00;;;;;;;7.70;2.53;;;;;;;3.49;93.09;101899.53;5038117;28;20128;-72
2023/03/27 07:46:26;;;;;;;12.93;3.53;;;;;;;3.56;93.00;101906.44;5041500;28;20090;-72
2023/03/27 07:48:52;;;;;;;7.63;2.03;;;;;;;3.64;92.09;101907.06;5041909;28;20123;-72
2023/03/27 07:51:17;;;;;;;12.55;2.97;;;;;;;3.71;88.50;101907.78;5033837;28;20033;-73
2023/03/27 07:53:42;;;;;;;11.43;2.85;;;;;;;3.76;88.92;101911.19;5042011;28;20032;-72
2023/03/27 07:56:09;;;;;;;10.35;2.83;;;;;;;3.83;89.20;101911.91;5041791;28;20450;-73
2023/03/27 07:58:35;;;;;;;10.70;2.10;;;;;;;3.89;88.39;101911.72;5033767;28;20411;-73
2023/03/27 08:01:03;;;;;;;13.50;2.72;;;;;;;3.97;87.51;101908.88;5041753;28;20496;-73
2023/03/27 08:03:29;;;;;;;10.43;2.60;;;;;;;4.04;88.19;101926.38;5043550;28;20067;-73
2023/03/27 08:05:59;;;;;;;10.70;2.65;;;;;;;4.09;86.36;101921.81;5043480;28;20025;-72
2023/03/27 08:08:25;;;;;;;14.45;3.35;;;;;;;4.12;85.42;101919.03;5044495;28;20502;-73
2023/03/27 08:10:54;;;;;;;13.15;2.20;;;;;;;4.19;85.69;101919.75;5030193;28;20045;-72
2023/03/27 08:13:19;;;;;;;11.45;2.40;;;;;;;4.27;85.84;101916.84;5043171;28;20017;-72
2023/03/27 08:15:45;;;;;;;9.85;2.83;;;;;;;4.34;87.60;101918.41;5042637;28;20555;-72
2023/03/27 08:18:10;;;;;;;7.78;2.10;;;;;;;4.41;84.88;101929.72;5040227;28;20037;-72
2023/03/27 08:20:37;;;;;;;11.38;2.50;;;;;;;4.53;84.72;101934.72;5041561;28;20053;-73
2023/03/27 08:23:03;;;;;;;9.10;2.35;;;;;;;4.68;85.32;101944.88;5044622;28;20021;-73
2023/03/27 08:25:31;;;;;;;2.83;1.60;;;;;;;4.75;84.58;101963.34;5044452;28;20033;-73
2023/03/27 08:27:57;;;;;;;12.85;2.13;;;;;;;4.72;86.11;101950.97;5039456;28;20025;-73
2023/03/27 08:30:22;;;;;;;9.63;1.73;;;;;;;4.57;81.03;101940.78;5040180;28;20029;-73
2023/03/27 08:32:48;;;;;;;7.43;1.55;;;;;;;4.45;81.01;101955.34;5040410;28;20013;-73
2023/03/27 08:35:13;;;;;;;4.47;1.35;;;;;;;4.38;80.35;101960.00;5039414;28;20400;-73
2023/03/27 08:37:40;;;;;;;5.82;1.60;;;;;;;4.30;82.32;101957.53;5035090;28;20032;-73
2023/03/27 08:40:12;;;;;;;7.85;2.17;;;;;;;4.28;81.49;101956.72;5039299;28;20047;-72
2023/03/27 08:42:41;;;;;;;14.38;2.63;;;;;;;4.34;84.65;101958.34;5039378;28;20053;-73
2023/03/27 08:45:17;;;;;;;12.82;2.60;;;;;;;4.38;82.78;101962.66;5021419;28;20032;-73
2023/03/27 08:47:52;;;;;;;14.13;2.55;;;;;;;4.47;86.83;101965.03;5026496;28;20032;-73
2023/03/27 08:50:47;;;;;;;9.93;2.45;;;;;;;4.52;85.84;101960.47;5038946;28;20128;-73
2023/03/27 08:53:36;;;;;;;12.18;2.38;;;;;;;4.59;87.12;101966.47;5040216;28;20523;-73
2023/03/27 08:56:02;;;;;;;7.07;2.00;;;;;;;4.69;86.74;101961.75;5044107;28;20429;-73
2023/03/27 08:58:29;;;;;;;10.25;2.10;;;;;;;4.78;83.38;101966.78;5040376;28;20024;-73
2023/03/27 09:01:39;;;;;;;11.02;2.22;;;;;;;4.86;85.10;101975.41;5037166;28;20030;-73
2023/03/27 09:04:33;;;;;;;13.05;2.85;;;;;;;4.97;85.43;101985.72;5033587;28;20053;-73
2023/03/27 09:07:10;;;;;;;5.28;1.67;;;;;;;5.06;82.19;101980.06;5032152;28;20041;-73
2023/03/27 09:09:45;;;;;;;8.20;2.00;;;;;;;5.11;80.09;101985.28;5023441;28;20108;-73
2023/03/27 09:12:19;;;;;;;12.05;2.17;;;;;;;5.21;81.24;101980.50;5041610;28;20106;-73
2023/03/27 09:14:55;;;;;;;12.45;2.05;;;;;;;5.31;79.45;101975.75;5038771;28;20041;-73
2023/03/27 09:17:30;;;;;;;5.97;1.92;;;;;;;5.43;76.88;101972.66;5028266;28;20029;-73
2023/03/27 09:20:27;;;;;;;9.40;2.25;;;;;;;5.60;78.60;101988.09;5018419;28;20068;-73
2023/03/27 09:22:56;;;;;;;8.07;2.15;;;;;;;5.73;77.19;102004.56;5005226;28;20485;-73
2023/03/27 09:25:36;;;;;;;5.47;0.95;;;;;;;5.55;79.95;102028.28;5009739;28;20113;-73
2023/03/27 09:28:02;;;;;;;4.57;1.45;;;;;;;5.22;82.66;102035.56;5009662;28;20481;-73
2023/03/27 09:30:32;;;;;;;3.25;0.95;;;;;;;4.95;83.62;102051.50;5009816;28;20484;-72
2023/03/27 09:33:04;;;;;;;5.40;1.35;;;;;;;4.73;86.37;102064.59;5009607;28;20501;-72
2023/03/27 09:35:31;;;;;;;2.08;0.95;;;;;;;4.49;86.15;102050.19;4991025;28;20475;-72
2023/03/27 09:38:02;;;;;;;4.22;1.17;;;;;;;4.24;85.59;102050.88;4993376;28;20041;-72
2023/03/27 09:40:46;;;;;;;4.47;0.85;;;;;;;4.11;86.21;102042.34;4990037;28;20502;-72
2023/03/27 09:43:17;;;;;;;3.80;1.08;;;;;;;4.00;87.39;102033.78;4992115;28;20038;-72
2023/03/27 09:45:43;;;;;;;4.68;1.25;;;;;;;3.95;89.14;102025.03;4989437;28;20034;-72
2023/03/27 09:48:20;;;;;;;5.85;1.17;;;;;;;3.92;88.12;102025.13;4990778;28;20030;-72
2023/03/27 09:50:48;;;;;;;7.43;1.27;;;;;;;3.94;88.27;102031.28;4990488;28;20030;-72
2023/03/27 09:53:13;;;;;;;4.35;0.85;;;;;;;4.00;87.87;102033.78;4996708;28;20366;-72
2023/03/27 09:55:51;;;;;;;4.50;0.98;;;;;;;4.07;86.81;102039.81;4995532;28;20034;-72
2023/03/27 09:58:26;;;;;;;10.63;1.40;;;;;;;4.15;89.68;102045.81;4991365;28;20509;-72
2023/03/27 10:01:33;;;;;;;5.57;1.10;;;;;;;4.19;84.75;102047.47;4991153;28;20061;-72
2023/03/27 10:03:59;;;;;;;8.90;1.60;;;;;;;4.21;83.39;102053.63;4990733;28;20056;-72
2023/03/27 10:06:26;;;;;;;2.60;1.10;;;;;;;4.27;86.35;102047.25;4990630;28;20034;-72
2023/03/27 10:08:54;;;;;;;9.30;1.75;;;;;;;4.31;85.69;102056.91;4996028;28;20041;-72
2023/03/27 10:11:27;;;;;;;8.75;2.28;;;;;;;4.40;86.93;102061.97;4986865;28;20026;-73
2023/03/27 10:13:53;;;;;;;6.75;2.00;;;;;;;4.52;87.44;102066.97;4986893;28;20128;-72
2023/03/27 10:16:21;;;;;;;3.42;1.70;;;;;;;4.67;88.94;102064.75;4996375;28;20038;-74
2023/03/27 10:18:49;;;;;;;8.30;1.90;;;;;;;4.75;87.85;102070.72;4999539;28;20021;-72
2023/03/27 10:21:26;;;;;;;16.67;2.55;;;;;;;4.88;88.98;102063.25;5021456;28;20061;-72
2023/03/27 10:24:05;;;;;;;7.40;1.55;;;;;;;5.00;89.91;102056.69;5029563;28;20124;-72
2023/03/27 10:26:35;;;;;;;9.00;2.00;;;;;;;5.09;88.37;102053.72;5039804;28;20028;-72
2023/03/27 10:29:07;;;;;;;;;;;;;;;5.16;87.80;102046.44;5039909;28;20029;-72
2023/03/27 10:31:38;;;;;;;5.55;1.35;;;;;;;5.20;84.25;102059.59;5054322;28;19978;-72
2023/03/27 10:34:25;;;;;;;7.30;1.65;;;;;;;5.23;83.00;102048.84;5040257;28;20053;-72
2023/03/27 10:36:53;;;;;;;4.75;1.45;;;;;;;5.34;84.95;102050.28;5040291;28;20719;-73
2023/03/27 10:39:19;;;;;;;5.13;1.38;;;;;;;5.40;81.72;102052.75;5042745;28;20034;-70
2023/03/27 10:41:46;;;;;;;7.68;1.50;;;;;;;5.42;77.40;102048.25;5033927;28;20473;-74
2023/03/27 10:44:18;;;;;;;5.93;1.27;;;;;;;5.47;79.16;102042.78;5032497;28;20067;-74
2023/03/27 10:46:44;;;;;;;10.05;1.83;;;;;;;5.55;82.15;102038.94;5049537;28;20105;-75
2023/03/27 10:49:24;;;;;;;10.25;1.55;;;;;;;5.67;77.68;102048.31;5036044;28;20032;-74
2023/03/27 10:51:49;;;;;;;11.15;2.38;;;;;;;5.90;78.31;102058.22;5042159;28;20032;-74
2023/03/27 10:54:42;;;;;;;7.88;1.75;;;;;;;6.16;80.54;102058.25;5036697;28;20384;-75
2023/03/27 10:57:17;;;;;;;7.22;1.80;;;;;;;6.27;73.94;102051.63;5028337;28;20570;-74
2023/03/27 10:59:57;;;;;;;11.50;2.08;;;;;;;6.38;78.36;102074.38;5022281;28;20029;-74
2023/03/27 11:02:40;;;;;;;5.70;1.63;;;;;;;6.05;82.90;102090.69;5032910;28;20029;-73
2023/03/27 11:05:14;;;;;;;12.52;2.03;;;;;;;5.72;85.29;102093.50;5039261;28;20481;-72
2023/03/27 11:07:46;;;;;;;7.13;1.52;;;;;;;5.44;86.51;102115.72;5024244;28;20040;-72
2023/03/27 11:10:17;;;;;;;8.25;1.65;;;;;;;5.32;89.58;102114.31;5035454;28;20025;-72
2023/03/27 11:12:50;;;;;;;7.97;1.98;;;;;;;5.20;90.01;102107.59;5039755;28;20127;-72
2023/03/27 11:15:29;;;;;;;12.68;2.10;;;;;;;5.13;92.20;102111.34;5035126;28;20079;-72
2023/03/27 11:18:00;;;;;;;8.20;1.95;;;;;;;5.06;93.26;102107.13;5017140;28;20056;-72
2023/03/27 11:20:50;;;;;;;15.35;2.63;;;;;;;5.01;92.98;102106.41;5043713;28;20049;-72
2023/03/27 11:23:27;;;;;;;;;;;;;;;4.97;91.86;102110.06;5031933;28;20128;-72
2023/03/27 11:25:53;;;;;;;9.68;2.35;;;;;;;4.88;96.78;102111.22;5042833;28;20019;-72
2023/03/27 11:28:31;;;;;;;8.43;2.47;;;;;;;4.90;99.76;102107.59;5038286;28;20018;-72
2023/03/27 11:31:05;;;;;;;9.65;2.28;;;;;;;4.93;97.79;102108.41;5042309;28;20049;-73
2023/03/27 11:34:04;;;;;;;6.82;1.85;;;;;;;4.93;94.87;102113.72;5035860;28;20017;-72
2023/03/27 11:36:42;;;;;;;8.45;1.55;;;;;;;4.96;95.68;102111.84;5036358;28;20037;-72
2023/03/27 11:39:20;;;;;;;8.85;2.25;;;;;;;5.01;94.68;102111.72;5044922;28;20043;-72
2023/03/27 11:41:52;;;;;;;9.68;2.10;;;;;;;5.00;94.36;102112.63;5043529;28;20025;-73
2023/03/27 11:44:17;;;;;;;8.98;2.17;;;;;;;5.05;96.89;102108.91;5049289;28;20132;-72
2023/03/27 11:46:55;;;;;;;12.88;2.30;;;;;;;5.07;95.56;102109.72;5039854;28;20392;-72